Ride Results

Waterloo Day One 2009 (07-03-2009)
Ride distance: 80.0 km

Outcomes - Waterloo Day One 2009 (07-03-2009)
Division No. of Entries Retired / DNE Completed Withdrawn Ineligible V/O Percentage Completed
HW 13 - 11 2 - - 84.62%
MW 12 - 11 - - 1 91.67%
LW 4 - 3 1 - - 75.00%
JN 2 - 2 - - - 100.00%
Totals 31 - 27 3 - 1 87.10%
Results - Waterloo Day One 2009 (07-03-2009)
No. Rider Horse Place Time Leg Speeds Total
Km/Hr
H/R bpm
Heavyweight
82 Jarrod Robinson Julian 1 (BC) 5:42:00 15.7, 12.6 14.04 36, 43, 44 (Avg:43)
18 Ken Bradley Roheryn Dartagnon 2 6:25:00 12.0, 12.9 12.47 37, 42, 52 (Avg:47)
876 Vincent Comer JR 3 6:35:00 11.9, 12.3 12.15 36, 47, 47 (Avg:47)
889 Sarah Pollard-Williams Sunny 3 6:35:00 11.9, 12.3 12.15 38, 38, 54 (Avg:46)
894 Andrew McNicol Musical Gully Instrument 5 6:48:00 11.7, 11.8 11.76 42, 52, 50 (Avg:51)
884 Mark Shillabeer Ronan 5 6:48:00 11.7, 11.8 11.76 33, 41, 42 (Avg:41)
905 Janine Stembridge Storm 7 6:54:00 11.3, 11.8 11.59 33, 42, 52 (Avg:47)
58 Dianne Tobin Cromarty Park Simply The Best 8 7:08:00 11.3, 11.0 11.21 40, 48, 56 (Avg:52)
906 Geoffrey Woods Lombo Express 9 7:25:00 11.9, 9.8 10.79 34, 47, 49 (Avg:48)
46 Nigel Anderson Tubbarubba Silver 10 7:38:00 11.5, 9.5 10.48 34, 48, 56 (Avg:52)
198 Tony Thorneycroft Al-Kareeme B'Dazzled 11 7:47:00 10.8, 9.7 10.28 35, 38, 53 (Avg:45)
863 Fiona Finigan Aloha St Nicholas Withdrawn L1 0:00:00 - - 34, 48 (Avg:48)
81 Merv Fisher Wenway Eternity Withdrawn L1 0:00:00 - - 38, 46 (Avg:46)
Middleweight
69 Laura Salisbury Thorlindah Stock Broker 1 (BC) 4:20:00 18.7, 18.1 18.46 33, 40, 43 (Avg:41)
70 Anne Simmons Musical Gully Pizzecato 1 4:20:00 18.7, 18.1 18.46 32, 40, 48 (Avg:44)
15 Meg Wade Castlebar Nova 3 4:52:00 17.2, 15.6 16.44 34, 46, 44 (Avg:45)
126 Wendy Riha Magic Glenn Venture 4 5:42:00 14.7, 13.4 14.04 32, 45, 42 (Avg:43)
867 Kim Fitzpatrick Red Hot Chilli Pepper 5 6:17:00 12.4, 12.9 12.73 34, 40, 51 (Avg:45)
56 Wendy Bootle Blue Bopp 6 6:25:00 14.7, 10.8 12.47 32, 48, 52 (Avg:50)
89 Sheryl Herbert Krishlah Maleeka 7 6:33:00 13.0, 11.4 12.21 32, 42, 47 (Avg:44)
898 Jessica Remfry Ennerdale Meccano 7 6:33:00 13.0, 11.4 12.21 32, 40, 42 (Avg:41)
864 Shelley Cowan Castlebar Ms Treaty 9 7:09:00 11.5, 10.8 11.19 38, 40, 54 (Avg:47)
84 Kristie Taprell Castlebar Elodie 9 7:09:00 11.5, 10.8 11.19 35, 47, 50 (Avg:48)
107 Jo Brock Im Not Shy (Lady) 11 7:25:00 12.5, 9.4 10.79 32, 43, 54 (Avg:48)
80 Heather Saunders Willie Hackit Heart Rate L2 0:00:00 13.5, 14.5 - 32, 42, 64 (Avg:53)
Lightweight
91 Kim Noble Roheryn Park Khaleef 1 6:10:00 13.1, 12.7 12.97 28, 48, 41 (Avg:44)
85 Belinda Kolek Oak-Glen Seacrest 2 (BC) 6:17:00 12.4, 12.9 12.73 39, 40, 43 (Avg:41)
8 Jane McLaughlin Syrahbia 3 7:18:00 12.6, 9.6 10.96 34, 40, 52 (Avg:46)
22 Sarah McLaughlin Elphyn Shafyre Withdrawn L1 0:00:00 - - 34, 55 (Avg:55)
Junior
90 Samantha Noble Menora Dark Moon 1 (BC) 6:10:00 13.1, 12.7 12.97 34, 48, 48 (Avg:48)
86 Ruby Blake Ennerdale Oscar 2 8:05:00 10.1, 9.6 9.90 38, 41, 47 (Avg:44)